Time;durP1;ratioP1;P1;durP2;ratioP2;P2;SDS_P1;SDS_P2;PMS_P1;PMS_P2;Temp;Humidity;BMP_temperature;BMP_pressure;BME280_temperature;BME280_humidity;BME280_pressure;Samples;Min_cycle;Max_cycle;Signal;HPM_P1;HPM_P2
2022/02/23 00:00:26;;;;;;;;;;;;;;;-147.53;100.00;59759.91;5058796;28;19917;-83
2022/02/23 00:02:51;;;;;;;;;;;;;;;-147.53;100.00;59759.91;5058412;28;19916;-83
2022/02/23 00:05:18;;;;;;;;;;;;;;;-147.53;100.00;59759.91;5058814;28;20019;-82
2022/02/23 00:07:43;;;;;;;;;;;;;;;-147.53;100.00;59759.91;5076827;28;19956;-83
2022/02/23 00:10:09;;;;;;;;;;;;;;;-147.53;100.00;59759.91;5058319;28;19920;-83
2022/02/23 00:12:34;;;;;;;;;;;;;;;-147.53;100.00;59759.91;5057824;28;19916;-82
2022/02/23 00:15:00;;;;;;;;;;;;;;;-147.53;100.00;59759.91;5058370;28;19917;-83
2022/02/23 00:17:25;;;;;;;;;;;;;;;-147.53;100.00;59759.91;5058594;28;19965;-82
2022/02/23 00:19:54;;;;;;;;;;;;;;;-147.53;100.00;59759.91;5059625;28;19921;-83
2022/02/23 00:22:20;;;;;;;;;;;;;;;-147.53;100.00;59759.91;5059290;28;20305;-83
2022/02/23 00:24:45;;;;;;;;;;;;;;;-147.53;100.00;59759.91;5058965;28;19912;-83
2022/02/23 00:27:10;;;;;;;;;;;;;;;-147.53;100.00;59759.91;5058909;28;19970;-83
2022/02/23 00:29:36;;;;;;;;;;;;;;;-147.53;100.00;59759.91;5059219;28;20015;-84
2022/02/23 00:32:02;;;;;;;;;;;;;;;-147.53;100.00;59759.91;5058198;28;20301;-84
2022/02/23 00:34:27;;;;;;;;;;;;;;;-147.53;100.00;59759.91;5058574;28;19962;-84
2022/02/23 00:36:54;;;;;;;;;;;;;;;-147.53;100.00;59759.91;5058219;28;19966;-83
2022/02/23 00:39:20;;;;;;;;;;;;;;;-147.53;100.00;59759.91;5058339;28;20374;-83
2022/02/23 00:41:45;;;;;;;;;;;;;;;-147.53;100.00;59759.91;5058046;28;19923;-83
2022/02/23 00:44:10;;;;;;;;;;;;;;;-147.53;100.00;59759.91;5058577;28;19969;-82
2022/02/23 00:46:36;;;;;;;;;;;;;;;-147.53;100.00;59759.91;5058102;28;19951;-82
2022/02/23 00:49:01;;;;;;;;;;;;;;;-147.53;100.00;59759.91;5058216;28;20375;-83
2022/02/23 00:51:26;;;;;;;;;;;;;;;-147.53;100.00;59759.91;5075816;28;19952;-83
2022/02/23 00:53:51;;;;;;;;;;;;;;;-147.53;100.00;59759.91;5058046;28;19917;-85
2022/02/23 00:56:17;;;;;;;;;;;;;;;-147.53;100.00;59759.91;5058218;28;19924;-84
2022/02/23 00:58:42;;;;;;;;;;;;;;;-147.53;100.00;59759.91;5058329;28;20289;-82
2022/02/23 01:01:07;;;;;;;;;;;;;;;-147.53;100.00;59759.91;5057993;28;20393;-83
2022/02/23 01:03:32;;;;;;;;;;;;;;;-147.53;100.00;59759.91;5058518;28;20289;-84
2022/02/23 01:05:57;;;;;;;;;;;;;;;-147.53;100.00;59759.91;5075758;28;19916;-84
2022/02/23 01:08:23;;;;;;;;;;;;;;;-147.53;100.00;59759.91;5057980;28;19916;-83
2022/02/23 01:10:48;;;;;;;;;;;;;;;-147.53;100.00;59759.91;5057857;28;19924;-83
2022/02/23 01:13:13;;;;;;;;;;;;;;;-147.53;100.00;59759.91;5075717;28;20354;-83
2022/02/23 01:15:39;;;;;;;;;;;;;;;-147.53;100.00;59759.91;5057837;28;19920;-83
2022/02/23 01:18:04;;;;;;;;;;;;;;;-147.53;100.00;59759.91;5057185;28;20397;-83
2022/02/23 01:20:29;;;;;;;;;;;;;;;-147.53;100.00;59759.91;5058099;28;19920;-83
2022/02/23 01:22:59;;;;;;;;;;;;;;;-147.53;100.00;59759.91;5057127;28;19916;-84
2022/02/23 01:25:25;;;;;;;;;;;;;;;-147.53;100.00;59759.91;5058073;28;19917;-83
2022/02/23 01:27:50;;;;;;;;;;;;;;;-147.53;100.00;59759.91;5057775;28;19917;-83
2022/02/23 01:30:17;;;;;;;;;;;;;;;-147.53;100.00;59759.91;5075673;28;20377;-84
2022/02/23 01:32:42;;;;;;;;;;;;;;;-147.53;100.00;59759.91;5075993;28;19916;-82
2022/02/23 01:35:07;;;;;;;;;;;;;;;-147.53;100.00;59759.91;5057374;28;19917;-84
2022/02/23 01:37:33;;;;;;;;;;;;;;;-147.53;100.00;59759.91;5075692;28;19923;-84
2022/02/23 01:39:58;;;;;;;;;;;;;;;-147.53;100.00;59759.91;5075505;28;19916;-83
2022/02/23 01:42:23;;;;;;;;;;;;;;;-147.53;100.00;59759.91;5057208;28;19920;-83
2022/02/23 01:44:48;;;;;;;;;;;;;;;-147.53;100.00;59759.91;5057239;28;20069;-84
2022/02/23 01:47:13;;;;;;;;;;;;;;;-147.53;100.00;59759.91;5057069;28;20359;-83
2022/02/23 01:49:39;;;;;;;;;;;;;;;-147.53;100.00;59759.91;5057066;28;20398;-84
2022/02/23 01:52:05;;;;;;;;;;;;;;;-147.53;100.00;59759.91;5075286;28;20536;-85
2022/02/23 01:54:30;;;;;;;;;;;;;;;-147.53;100.00;59759.91;5075537;28;19920;-84
2022/02/23 01:56:55;;;;;;;;;;;;;;;-147.53;100.00;59759.91;5058067;28;19939;-83
2022/02/23 01:59:20;;;;;;;;;;;;;;;-147.53;100.00;59759.91;5058543;28;19923;-84
2022/02/23 02:01:46;;;;;;;;;;;;;;;-147.53;100.00;59759.91;5058460;28;19916;-85
2022/02/23 02:04:11;;;;;;;;;;;;;;;-147.53;100.00;59759.91;5057683;28;20368;-84
2022/02/23 02:06:36;;;;;;;;;;;;;;;-147.53;100.00;59759.91;5058156;28;19970;-83
2022/02/23 02:09:02;;;;;;;;;;;;;;;-147.53;100.00;59759.91;5058145;28;19921;-84
2022/02/23 02:11:27;;;;;;;;;;;;;;;-147.53;100.00;59759.91;5057842;28;19939;-84
2022/02/23 02:13:52;;;;;;;;;;;;;;;-147.53;100.00;59759.91;5057971;28;19942;-84
2022/02/23 02:16:18;;;;;;;;;;;;;;;-147.53;100.00;59759.91;5057426;28;20297;-83
2022/02/23 02:18:43;;;;;;;;;;;;;;;-147.53;100.00;59759.91;5075698;28;19944;-84
2022/02/23 02:21:08;;;;;;;;;;;;;;;-147.53;100.00;59759.91;5075827;28;19928;-84
2022/02/23 02:23:33;;;;;;;;;;;;;;;-147.53;100.00;59759.91;5057720;28;19917;-83
2022/02/23 02:25:59;;;;;;;;;;;;;;;-147.53;100.00;59759.91;5057645;28;20293;-84
2022/02/23 02:28:24;;;;;;;;;;;;;;;-147.53;100.00;59759.91;5057597;28;20310;-83
2022/02/23 02:30:49;;;;;;;;;;;;;;;-147.53;100.00;59759.91;5057577;28;19972;-83
2022/02/23 02:33:14;;;;;;;;;;;;;;;-147.53;100.00;59759.91;5057896;28;19931;-84
2022/02/23 02:35:40;;;;;;;;;;;;;;;-147.53;100.00;59759.91;5061151;28;20003;-84
2022/02/23 02:38:06;;;;;;;;;;;;;;;-147.53;100.00;59759.91;5061560;28;19916;-83
2022/02/23 02:40:32;;;;;;;;;;;;;;;-147.53;100.00;59759.91;5061671;28;19925;-83
2022/02/23 02:42:57;;;;;;;;;;;;;;;-147.53;100.00;59759.91;5061400;28;20010;-83
2022/02/23 02:45:24;;;;;;;;;;;;;;;-147.53;100.00;59759.91;5061209;28;19923;-84
2022/02/23 02:47:50;;;;;;;;;;;;;;;-147.53;100.00;59759.91;5061599;28;19994;-83
2022/02/23 02:50:15;;;;;;;;;;;;;;;-147.53;100.00;59759.91;5061597;28;19921;-83
2022/02/23 02:52:40;;;;;;;;;;;;;;;-147.53;100.00;59759.91;5061634;28;19958;-85
2022/02/23 02:55:06;;;;;;;;;;;;;;;-147.53;100.00;59759.91;5061130;28;19913;-84
2022/02/23 02:57:31;;;;;;;;;;;;;;;-147.53;100.00;59759.91;5060719;28;20536;-84
2022/02/23 02:59:56;;;;;;;;;;;;;;;-147.53;100.00;59759.91;5060590;28;19930;-84
2022/02/23 03:02:21;;;;;;;;;;;;;;;-147.53;100.00;59759.91;5060921;28;19923;-85
2022/02/23 03:04:47;;;;;;;;;;;;;;;-147.53;100.00;59759.91;5061037;28;19913;-84
2022/02/23 03:07:12;;;;;;;;;;;;;;;-147.53;100.00;59759.91;5060834;28;20320;-84
2022/02/23 03:09:37;;;;;;;;;;;;;;;-147.53;100.00;59759.91;5078667;28;19939;-83
2022/02/23 03:12:03;;;;;;;;;;;;;;;-147.53;100.00;59759.91;5078779;28;19923;-83
2022/02/23 03:14:28;;;;;;;;;;;;;;;-147.53;100.00;59759.91;5060481;28;20275;-84
2022/02/23 03:16:53;;;;;;;;;;;;;;;-147.53;100.00;59759.91;5056814;28;19974;-84
2022/02/23 03:19:18;;;;;;;;;;;;;;;-147.53;100.00;59759.91;5057460;28;19944;-84
2022/02/23 03:21:43;;;;;;;;;;;;;;;-147.53;100.00;59759.91;5057197;28;20404;-83
2022/02/23 03:24:09;;;;;;;;;;;;;;;-147.53;100.00;59759.91;5056959;28;19921;-85
2022/02/23 03:26:34;;;;;;;;;;;;;;;-147.53;100.00;59759.91;5057090;28;19943;-84
2022/02/23 03:28:59;;;;;;;;;;;;;;;-147.53;100.00;59759.91;5056875;28;19924;-84
2022/02/23 03:31:24;;;;;;;;;;;;;;;-147.53;100.00;59759.91;5056837;28;19924;-84
2022/02/23 03:33:50;;;;;;;;;;;;;;;-147.53;100.00;59759.91;5057093;28;20268;-84
2022/02/23 03:36:16;;;;;;;;;;;;;;;-147.53;100.00;59759.91;5056853;28;19917;-83
2022/02/23 03:38:43;;;;;;;;;;;;;;;-147.53;100.00;59759.91;5056845;28;19923;-83
2022/02/23 03:41:08;;;;;;;;;;;;;;;-147.53;100.00;59759.91;5057980;28;19917;-83
2022/02/23 03:43:33;;;;;;;;;;;;;;;-147.53;100.00;59759.91;5056579;28;19924;-84
2022/02/23 03:45:59;;;;;;;;;;;;;;;-147.53;100.00;59759.91;5055782;28;19921;-82
2022/02/23 03:48:24;;;;;;;;;;;;;;;-147.53;100.00;59759.91;5056580;28;19920;-83
2022/02/23 03:50:49;;;;;;;;;;;;;;;-147.53;100.00;59759.91;5056417;28;20251;-84
2022/02/23 03:53:15;;;;;;;;;;;;;;;-147.53;100.00;59759.91;5057481;28;19947;-84
2022/02/23 03:55:41;;;;;;;;;;;;;;;-147.53;100.00;59759.91;5056762;28;20019;-84
2022/02/23 03:58:07;;;;;;;;;;;;;;;-147.53;100.00;59759.91;5057906;28;19949;-84
2022/02/23 04:00:32;;;;;;;;;;;;;;;-147.53;100.00;59759.91;5056377;28;20389;-84
2022/02/23 04:02:57;;;;;;;;;;;;;;;-147.53;100.00;59759.91;5056424;28;19924;-84
2022/02/23 04:05:22;;;;;;;;;;;;;;;-147.53;100.00;59759.91;5056431;28;19948;-83
2022/02/23 04:07:48;;;;;;;;;;;;;;;-147.53;100.00;59759.91;5056384;28;20015;-84
2022/02/23 04:10:14;;;;;;;;;;;;;;;-147.53;100.00;59759.91;5056721;28;19983;-83
2022/02/23 04:12:39;;;;;;;;;;;;;;;-147.53;100.00;59759.91;5056389;28;19921;-84
2022/02/23 04:15:04;;;;;;;;;;;;;;;-147.53;100.00;59759.91;5056320;28;20417;-84
2022/02/23 04:17:30;;;;;;;;;;;;;;;-147.53;100.00;59759.91;5070272;28;19920;-84
2022/02/23 04:19:55;;;;;;;;;;;;;;;-147.53;100.00;59759.91;5059331;28;20539;-84
2022/02/23 04:22:21;;;;;;;;;;;;;;;-147.53;100.00;59759.91;5059452;28;19916;-84
2022/02/23 04:24:46;;;;;;;;;;;;;;;-147.53;100.00;59759.91;5077446;28;19917;-85
2022/02/23 04:27:11;;;;;;;;;;;;;;;-147.53;100.00;59759.91;5059377;28;20393;-84
2022/02/23 04:29:36;;;;;;;;;;;;;;;-147.53;100.00;59759.91;5059014;28;19916;-84
2022/02/23 04:32:02;;;;;;;;;;;;;;;-147.53;100.00;59759.91;5059282;28;19924;-84
2022/02/23 04:34:27;;;;;;;;;;;;;;;-147.53;100.00;59759.91;5059444;28;20370;-83
2022/02/23 04:36:52;;;;;;;;;;;;;;;-147.53;100.00;59759.91;5076802;28;20274;-85
2022/02/23 04:39:18;;;;;;;;;;;;;;;-147.53;100.00;59759.91;5059326;28;19938;-84
2022/02/23 04:41:43;;;;;;;;;;;;;;;-147.53;100.00;59759.91;5059365;28;19986;-83
2022/02/23 04:44:09;;;;;;;;;;;;;;;-147.53;100.00;59759.91;5058946;28;19925;-84
2022/02/23 04:46:34;;;;;;;;;;;;;;;-147.53;100.00;59759.91;5059541;28;19924;-84
2022/02/23 04:49:00;;;;;;;;;;;;;;;-147.53;100.00;59759.91;5059441;28;20010;-84
2022/02/23 04:51:28;;;;;;;;;;;;;;;-147.53;100.00;59759.91;5059223;28;19921;-84
2022/02/23 04:53:53;;;;;;;;;;;;;;;-147.53;100.00;59759.91;5058939;28;19917;-84
2022/02/23 04:56:18;;;;;;;;;;;;;;;-147.53;100.00;59759.91;5058998;28;19923;-83
2022/02/23 04:58:44;;;;;;;;;;;;;;;-147.53;100.00;59759.91;5058740;28;19924;-83
2022/02/23 05:01:11;;;;;;;;;;;;;;;-147.53;100.00;59759.91;5058835;28;20289;-84
2022/02/23 05:03:37;;;;;;;;;;;;;;;-147.53;100.00;59759.91;5076876;28;19917;-84
2022/02/23 05:06:02;;;;;;;;;;;;;;;-147.53;100.00;59759.91;5058908;28;20332;-83
2022/02/23 05:08:28;;;;;;;;;;;;;;;-147.53;100.00;59759.91;5058778;28;19924;-84
2022/02/23 05:10:57;;;;;;;;;;;;;;;-147.53;100.00;59759.91;5058920;28;19916;-84
2022/02/23 05:13:22;;;;;;;;;;;;;;;-147.53;100.00;59759.91;5058906;28;20420;-83
2022/02/23 05:15:48;;;;;;;;;;;;;;;-147.53;100.00;59759.91;5058758;28;19916;-83
2022/02/23 05:18:13;;;;;;;;;;;;;;;-147.53;100.00;59759.91;5058387;28;19920;-84
2022/02/23 05:20:39;;;;;;;;;;;;;;;-147.53;100.00;59759.91;5058746;28;20283;-84
2022/02/23 05:23:05;;;;;;;;;;;;;;;-147.53;100.00;59759.91;5058355;28;19923;-84
2022/02/23 05:25:31;;;;;;;;;;;;;;;-147.53;100.00;59759.91;5058949;28;19916;-84
2022/02/23 05:27:56;;;;;;;;;;;;;;;-147.53;100.00;59759.91;5058657;28;19923;-84
2022/02/23 05:30:21;;;;;;;;;;;;;;;-147.53;100.00;59759.91;5076259;28;19938;-84
2022/02/23 05:32:47;;;;;;;;;;;;;;;-147.53;100.00;59759.91;5058656;28;20014;-84
2022/02/23 05:35:13;;;;;;;;;;;;;;;-147.53;100.00;59759.91;5058535;28;19913;-84
2022/02/23 05:37:39;;;;;;;;;;;;;;;-147.53;100.00;59759.91;5058461;28;19924;-83
2022/02/23 05:40:06;;;;;;;;;;;;;;;-147.53;100.00;59759.91;5058003;28;19916;-84
2022/02/23 05:42:31;;;;;;;;;;;;;;;-147.53;100.00;59759.91;5075805;28;20362;-84
2022/02/23 05:44:57;;;;;;;;;;;;;;;-147.53;100.00;59759.91;5076090;28;19923;-84
2022/02/23 05:47:22;;;;;;;;;;;;;;;-147.53;100.00;59759.91;5058513;28;19912;-84
2022/02/23 05:49:47;;;;;;;;;;;;;;;-147.53;100.00;59759.91;5058017;28;19924;-82
2022/02/23 05:52:13;;;;;;;;;;;;;;;-147.53;100.00;59759.91;5058192;28;20014;-82
2022/02/23 05:54:39;;;;;;;;;;;;;;;-147.53;100.00;59759.91;5058124;28;20030;-85
2022/02/23 05:57:04;;;;;;;;;;;;;;;-147.53;100.00;59759.91;5075700;28;19928;-84
2022/02/23 05:59:30;;;;;;;;;;;;;;;-147.53;100.00;59759.91;5055675;28;19916;-84
2022/02/23 06:01:55;;;;;;;;;;;;;;;-147.53;100.00;59759.91;5056467;28;20362;-84
2022/02/23 06:04:20;;;;;;;;;;;;;;;-147.53;100.00;59759.91;5056494;28;19916;-84
2022/02/23 06:06:45;;;;;;;;;;;;;;;-147.53;100.00;59759.91;5056137;28;19987;-85
2022/02/23 06:09:10;;;;;;;;;;;;;;;-147.53;100.00;59759.91;5055012;28;19924;-83
2022/02/23 06:11:38;;;;;;;;;;;;;;;-147.53;100.00;59759.91;5073625;28;20360;-84
2022/02/23 06:14:05;;;;;;;;;;;;;;;-147.53;100.00;59759.91;5055682;28;19963;-83
2022/02/23 06:16:30;;;;;;;;;;;;;;;-147.53;100.00;59759.91;5072710;28;19921;-82
2022/02/23 06:18:56;;;;;;;;;;;;;;;-147.53;100.00;59759.91;5054848;28;19928;-83
2022/02/23 06:21:21;;;;;;;;;;;;;;;-147.53;100.00;59759.91;5054938;28;19959;-84
2022/02/23 06:23:46;;;;;;;;;;;;;;;-147.53;100.00;59759.91;5073263;28;19917;-85
2022/02/23 06:26:11;;;;;;;;;;;;;;;-147.53;100.00;59759.91;5055642;28;19916;-85
2022/02/23 06:28:37;;;;;;;;;;;;;;;-147.53;100.00;59759.91;5055592;28;19922;-85
2022/02/23 06:31:02;;;;;;;;;;;;;;;-147.53;100.00;59759.91;5054865;28;19928;-84
2022/02/23 06:33:28;;;;;;;;;;;;;;;-147.53;100.00;59759.91;5059790;28;19924;-83
2022/02/23 06:35:53;;;;;;;;;;;;;;;-147.53;100.00;59759.91;5046750;28;20362;-83
2022/02/23 06:38:19;;;;;;;;;;;;;;;-147.53;100.00;59759.91;5041257;28;20425;-83
2022/02/23 06:40:46;;;;;;;;;;;;;;;-147.53;100.00;59759.91;5049928;28;20401;-86
2022/02/23 06:43:15;;;;;;;;;;;;;;;-147.53;100.00;59759.91;5071026;28;20074;-85
2022/02/23 06:45:41;;;;;;;;;;;;;;;-147.53;100.00;59759.91;5040535;28;19940;-85
2022/02/23 06:48:06;;;;;;;;;;;;;;;-147.53;100.00;59759.91;5043031;28;20370;-84
2022/02/23 06:50:32;;;;;;;;;;;;;;;-147.53;100.00;59759.91;5072688;28;19927;-84
2022/02/23 06:52:58;;;;;;;;;;;;;;;-147.53;100.00;59759.91;5055463;28;19923;-84
2022/02/23 06:55:23;;;;;;;;;;;;;;;-147.53;100.00;59759.91;5052872;28;19995;-86
2022/02/23 06:57:48;;;;;;;;;;;;;;;-147.53;100.00;59759.91;5055719;28;19959;-85
2022/02/23 07:00:14;;;;;;;;;;;;;;;-147.53;100.00;59759.91;5055367;28;19982;-87
2022/02/23 07:02:39;;;;;;;;;;;;;;;-147.53;100.00;59759.91;5050966;28;20018;-84
2022/02/23 07:05:06;;;;;;;;;;;;;;;-147.53;100.00;59759.91;5043069;28;19917;-84
2022/02/23 07:07:32;;;;;;;;;;;;;;;-147.53;100.00;59759.91;5034544;28;19971;-85
2022/02/23 07:09:57;;;;;;;;;;;;;;;-147.53;100.00;59759.91;5035177;28;19968;-84
2022/02/23 07:12:23;;;;;;;;;;;;;;;-147.53;100.00;59759.91;5034624;28;20371;-84
2022/02/23 07:14:48;;;;;;;;;;;;;;;-147.53;100.00;59759.91;5034485;28;19919;-85
2022/02/23 07:17:13;;;;;;;;;;;;;;;-147.53;100.00;59759.91;5034237;28;19928;-84
2022/02/23 07:19:38;;;;;;;;;;;;;;;-147.53;100.00;59759.91;5047844;28;20374;-85
2022/02/23 07:22:04;;;;;;;;;;;;;;;-147.53;100.00;59759.91;5038272;28;19917;-84
2022/02/23 07:24:31;;;;;;;;;;;;;;;-147.53;100.00;59759.91;5038219;28;19983;-84
2022/02/23 07:26:57;;;;;;;;;;;;;;;-147.53;100.00;59759.91;5055654;28;20379;-83
2022/02/23 07:29:23;;;;;;;;;;;;;;;-147.53;100.00;59759.91;5037677;28;19924;-84
2022/02/23 07:31:48;;;;;;;;;;;;;;;-147.53;100.00;59759.91;5054304;28;19916;-86
2022/02/23 07:34:13;;;;;;;;;;;;;;;-147.53;100.00;59759.91;5038897;28;19923;-85
2022/02/23 07:36:39;;;;;;;;;;;;;;;-147.53;100.00;59759.91;5039085;28;20003;-87
2022/02/23 07:39:04;;;;;;;;;;;;;;;-147.53;100.00;59759.91;5039437;28;20127;-86
2022/02/23 07:41:29;;;;;;;;;;;;;;;-147.53;100.00;59759.91;5038987;28;19920;-86
2022/02/23 07:43:55;;;;;;;;;;;;;;;-147.53;100.00;59759.91;5038985;28;20012;-86
2022/02/23 07:46:20;;;;;;;;;;;;;;;-147.53;100.00;59759.91;5038923;28;19923;-86
2022/02/23 07:48:47;;;;;;;;;;;;;;;-147.53;100.00;59759.91;5056788;28;20016;-87
2022/02/23 07:51:13;;;;;;;;;;;;;;;-147.53;100.00;59759.91;5056436;28;19921;-87
2022/02/23 07:53:38;;;;;;;;;;;;;;;-147.53;100.00;59759.91;5038503;28;19917;-87
2022/02/23 07:56:03;;;;;;;;;;;;;;;-147.53;100.00;59759.91;5056457;28;19917;-86
2022/02/23 07:58:28;;;;;;;;;;;;;;;-147.53;100.00;59759.91;5038074;28;19962;-85
2022/02/23 08:00:55;;;;;;;;;;;;;;;-147.53;100.00;59759.91;5038231;28;19962;-87
2022/02/23 08:03:21;;;;;;;;;;;;;;;-147.53;100.00;59759.91;5038295;28;19916;-86
2022/02/23 08:05:46;;;;;;;;;;;;;;;-147.53;100.00;59759.91;5038297;28;19916;-84
2022/02/23 08:08:11;;;;;;;;;;;;;;;-147.53;100.00;59759.91;5040062;28;20341;-84
2022/02/23 08:10:38;;;;;;;;;;;;;;;-147.53;100.00;59759.91;5056916;28;20011;-85
2022/02/23 08:13:05;;;;;;;;;;;;;;;-147.53;100.00;59759.91;5051001;28;19916;-84
2022/02/23 08:20:58;;;;;;;;;;;;;;;-147.53;100.00;59759.91;5055164;28;19928;-86
2022/02/23 08:23:24;;;;;;;;;;;;;;;-147.53;100.00;59759.91;5055413;28;19916;-85
2022/02/23 08:25:49;;;;;;;;;;;;;;;-147.53;100.00;59759.91;5039020;28;19920;-88
2022/02/23 08:28:15;;;;;;;;;;;;;;;-147.53;100.00;59759.91;5058504;28;19916;-86
2022/02/23 08:30:41;;;;;;;;;;;;;;;-147.53;100.00;59759.91;5059150;28;20630;-87
2022/02/23 08:33:06;;;;;;;;;;;;;;;-147.53;100.00;59759.91;5058445;28;19959;-89
2022/02/23 08:35:32;;;;;;;;;;;;;;;-147.53;100.00;59759.91;5060767;28;19916;-89
2022/02/23 08:37:57;;;;;;;;;;;;;;;-147.53;100.00;59759.91;5058800;28;20011;-88
2022/02/23 08:40:23;;;;;;;;;;;;;;;-147.53;100.00;59759.91;5058565;28;19963;-88
2022/02/23 08:42:48;;;;;;;;;;;;;;;-147.53;100.00;59759.91;5060127;28;19923;-88
2022/02/23 08:45:13;;;;;;;;;;;;;;;-147.53;100.00;59759.91;5065468;28;19923;-87
2022/02/23 08:47:38;;;;;;;;;;;;;;;-147.53;100.00;59759.91;5066221;28;20429;-86
2022/02/23 08:50:04;;;;;;;;;;;;;;;-147.53;100.00;59759.91;5080333;28;19920;-86
2022/02/23 08:52:29;;;;;;;;;;;;;;;-147.53;100.00;59759.91;5062110;28;19928;-85
2022/02/23 08:54:54;;;;;;;;;;;;;;;-147.53;100.00;59759.91;5079350;28;19916;-84
2022/02/23 08:57:20;;;;;;;;;;;;;;;-147.53;100.00;59759.91;5061113;28;19916;-86
2022/02/23 08:59:45;;;;;;;;;;;;;;;-147.53;100.00;59759.91;5057601;28;20132;-86
2022/02/23 09:02:10;;;;;;;;;;;;;;;-147.53;100.00;59759.91;5056547;28;20362;-85
2022/02/23 09:04:35;;;;;;;;;;;;;;;-147.53;100.00;59759.91;5057045;28;19912;-85
2022/02/23 09:07:00;;;;;;;;;;;;;;;-147.53;100.00;59759.91;5058464;28;19924;-88
2022/02/23 09:09:26;;;;;;;;;;;;;;;-147.53;100.00;59759.91;5058638;28;19917;-87
2022/02/23 09:11:53;;;;;;;;;;;;;;;-147.53;100.00;59759.91;5075559;28;19935;-85
2022/02/23 09:14:18;;;;;;;;;;;;;;;-147.53;100.00;59759.91;5075411;28;20382;-86
2022/02/23 09:16:44;;;;;;;;;;;;;;;-147.53;100.00;59759.91;5074914;28;19921;-84
2022/02/23 09:19:09;;;;;;;;;;;;;;;-147.53;100.00;59759.91;5056611;28;19982;-87
2022/02/23 09:21:35;;;;;;;;;;;;;;;-147.53;100.00;59759.91;5056609;28;19968;-86
2022/02/23 09:24:00;;;;;;;;;;;;;;;-147.53;100.00;59759.91;5056643;28;20027;-86
2022/02/23 09:26:26;;;;;;;;;;;;;;;-147.53;100.00;59759.91;5054806;28;20349;-88
2022/02/23 09:28:51;;;;;;;;;;;;;;;-147.53;100.00;59759.91;5054883;28;19966;-87
2022/02/23 09:31:17;;;;;;;;;;;;;;;-147.53;100.00;59759.91;5055124;28;20270;-87
2022/02/23 09:33:43;;;;;;;;;;;;;;;-147.53;100.00;59759.91;5055052;28;19916;-87
2022/02/23 09:36:09;;;;;;;;;;;;;;;-147.53;100.00;59759.91;5072888;28;19924;-87
2022/02/23 09:38:34;;;;;;;;;;;;;;;-147.53;100.00;59759.91;5055085;28;20274;-86
2022/02/23 09:41:00;;;;;;;;;;;;;;;-147.53;100.00;59759.91;5074017;28;20007;-86
2022/02/23 09:43:26;;;;;;;;;;;;;;;-147.53;100.00;59759.91;5055234;28;19916;-86
2022/02/23 09:45:53;;;;;;;;;;;;;;;-147.53;100.00;59759.91;5055718;28;19924;-84
2022/02/23 09:48:19;;;;;;;;;;;;;;;-147.53;100.00;59759.91;5055766;28;20393;-84
2022/02/23 09:50:44;;;;;;;;;;;;;;;-147.53;100.00;59759.91;5073313;28;20017;-86
2022/02/23 09:53:10;;;;;;;;;;;;;;;-147.53;100.00;59759.91;5056043;28;19916;-86
2022/02/23 09:55:35;;;;;;;;;;;;;;;-147.53;100.00;59759.91;5055450;28;19916;-85
2022/02/23 09:58:00;;;;;;;;;;;;;;;-147.53;100.00;59759.91;5056162;28;19916;-85
2022/02/23 10:00:25;;;;;;;;;;;;;;;-147.53;100.00;59759.91;5055284;28;19916;-87
2022/02/23 10:02:53;;;;;;;;;;;;;;;-147.53;100.00;59759.91;5055595;28;19916;-85
2022/02/23 10:05:19;;;;;;;;;;;;;;;-147.53;100.00;59759.91;5055498;28;19917;-86
2022/02/23 10:07:44;;;;;;;;;;;;;;;-147.53;100.00;59759.91;5055851;28;19917;-85
2022/02/23 10:10:10;;;;;;;;;;;;;;;-147.53;100.00;59759.91;5055300;28;19966;-86
2022/02/23 10:12:36;;;;;;;;;;;;;;;-147.53;100.00;59759.91;5055491;28;19970;-86
2022/02/23 10:15:17;;;;;;;;;;;;;;;-147.53;100.00;59759.91;5055271;28;19923;-86
2022/02/23 10:17:44;;;;;;;;;;;;;;;-147.53;100.00;59759.91;5055208;28;19928;-85
2022/02/23 10:20:39;;;;;;;;;;;;;;;-147.53;100.00;59759.91;5073206;28;19921;-86
2022/02/23 10:23:18;;;;;;;;;;;;;;;-147.53;100.00;59759.91;5038611;28;19924;-85
2022/02/23 10:25:43;;;;;;;;;;;;;;;-147.53;100.00;59759.91;5055261;28;20366;-85
2022/02/23 10:28:09;;;;;;;;;;;;;;;-147.53;100.00;59759.91;5055098;28;19970;-86
2022/02/23 10:30:35;;;;;;;;;;;;;;;-147.53;100.00;59759.91;5055200;28;20019;-85
2022/02/23 10:33:39;;;;;;;;;;;;;;;-147.53;100.00;59759.91;5055119;28;19920;-87
2022/02/23 10:36:11;;;;;;;;;;;;;;;-147.53;100.00;59759.91;4975137;28;19937;-86
2022/02/23 10:38:41;;;;;;;;;;;;;;;-147.53;100.00;59759.91;4991467;28;19918;-86
2022/02/23 10:41:07;;;;;;;;;;;;;;;-147.53;100.00;59759.91;5018201;28;20537;-86
2022/02/23 10:43:39;;;;;;;;;;;;;;;-147.53;100.00;59759.91;5054848;28;19916;-86
2022/02/23 10:46:12;;;;;;;;;;;;;;;-147.53;100.00;59759.91;5072829;28;19992;-86
2022/02/23 10:48:41;;;;;;;;;;;;;;;-147.53;100.00;59759.91;5054700;28;20390;-85
2022/02/23 10:51:11;;;;;;;;;;;;;;;-147.53;100.00;59759.91;5073302;28;20397;-85
2022/02/23 10:53:37;;;;;;;;;;;;;;;-147.53;100.00;59759.91;5074617;28;20401;-85
2022/02/23 10:56:23;;;;;;;;;;;;;;;-147.53;100.00;59759.91;5077770;28;19943;-86
2022/02/23 10:58:58;;;;;;;;;;;;;;;-147.53;100.00;59759.91;5058568;28;19920;-85
2022/02/23 11:01:24;;;;;;;;;;;;;;;-147.53;100.00;59759.91;5059184;28;20282;-86
2022/02/23 11:03:49;;;;;;;;;;;;;;;-147.53;100.00;59759.91;5058856;28;19917;-86
2022/02/23 11:06:14;;;;;;;;;;;;;;;-147.53;100.00;59759.91;5058617;28;19924;-86
2022/02/23 11:08:40;;;;;;;;;;;;;;;-147.53;100.00;59759.91;5076395;28;19993;-86
2022/02/23 11:11:06;;;;;;;;;;;;;;;-147.53;100.00;59759.91;5058657;28;19920;-85
2022/02/23 11:13:31;;;;;;;;;;;;;;;-147.53;100.00;59759.91;5058565;28;19921;-86
2022/02/23 11:15:56;;;;;;;;;;;;;;;-147.53;100.00;59759.91;5058076;28;19924;-85
2022/02/23 11:18:23;;;;;;;;;;;;;;;-147.53;100.00;59759.91;5057955;28;20026;-84
2022/02/23 11:20:49;;;;;;;;;;;;;;;-147.53;100.00;59759.91;5058116;28;19968;-86
2022/02/23 11:23:17;;;;;;;;;;;;;;;-147.53;100.00;59759.91;5058138;28;19923;-86
2022/02/23 11:25:44;;;;;;;;;;;;;;;-147.53;100.00;59759.91;5075948;28;19916;-86
2022/02/23 11:28:29;;;;;;;;;;;;;;;-147.53;100.00;59759.91;5058057;28;19916;-86
2022/02/23 11:30:56;;;;;;;;;;;;;;;-147.53;100.00;59759.91;5057838;28;19924;-86
2022/02/23 11:33:41;;;;;;;;;;;;;;;-147.53;100.00;59759.91;5057956;28;19917;-85
2022/02/23 11:36:17;;;;;;;;;;;;;;;-147.53;100.00;59759.91;5043772;28;19916;-86
2022/02/23 11:38:45;;;;;;;;;;;;;;;-147.53;100.00;59759.91;5057938;28;19939;-86
2022/02/23 11:41:21;;;;;;;;;;;;;;;-147.53;100.00;59759.91;5057788;28;19916;-84
2022/02/23 11:43:46;;;;;;;;;;;;;;;-147.53;100.00;59759.91;5057726;28;20270;-86
2022/02/23 11:46:11;;;;;;;;;;;;;;;-147.53;100.00;59759.91;5057588;28;19919;-86
2022/02/23 11:48:59;;;;;;;;;;;;;;;-147.53;100.00;59759.91;5057518;28;19924;-86
2022/02/23 11:51:29;;;;;;;;;;;;;;;-147.53;100.00;59759.91;5057561;28;19920;-85
2022/02/23 11:53:55;;;;;;;;;;;;;;;-147.53;100.00;59759.91;5075562;28;20014;-85
2022/02/23 11:56:20;;;;;;;;;;;;;;;-147.53;100.00;59759.91;5076790;28;20404;-85
2022/02/23 11:58:50;;;;;;;;;;;;;;;-147.53;100.00;59759.91;5076939;28;19923;-85
2022/02/23 12:01:17;;;;;;;;;;;;;;;-147.53;100.00;59759.91;5075892;28;19916;-84
2022/02/23 12:03:44;;;;;;;;;;;;;;;-147.53;100.00;59759.91;5057911;28;19923;-83
2022/02/23 12:06:10;;;;;;;;;;;;;;;-147.53;100.00;59759.91;5057662;28;19967;-83
2022/02/23 12:08:37;;;;;;;;;;;;;;;-147.53;100.00;59759.91;5057241;28;19942;-84
2022/02/23 12:11:05;;;;;;;;;;;;;;;-147.53;100.00;59759.91;5057956;28;20007;-84
2022/02/23 12:13:38;;;;;;;;;;;;;;;-147.53;100.00;59759.91;5075586;28;19916;-84
2022/02/23 12:16:38;;;;;;;;;;;;;;;-147.53;100.00;59759.91;5057680;28;19924;-83
2022/02/23 12:19:04;;;;;;;;;;;;;;;-147.53;100.00;59759.91;5014617;28;20374;-83